Airfield :
LOGIN :

Register | Disclaimer

   EN    FR    IT 

 










Legend :    VFR   Marginal VFR   IFR   Intensive IFR   Very Intensive IFR
Visi :
Ceiling :
>= 8 km
>= 3000ft
5 to 8 km
1000 to 3000 ft
1500m to 5 km
500 to 1000 ft
800 to 1500m
200 to 500 ft
< 800m
< 200 ft
Symbols :   Thunderstorms  Fog  Heavy snow  Heavy precipitations  Wind > 20 kt
SIGMETs :     Misc.  Thunderstorms  Icing  Turbulence  Mountain Waves  Volcanic Ashes







- Airport Elevation : 659 ft
- IATA code : LGG


EBLG - Liège

CURRENT METAR :
  • 231920Z 32006KT 290V360 9999 FEW008 SCT020 08/07 Q1021 TEMPO 4000 SHRA

EXPIRED METARs :
  • 231850Z 32008KT 290V360 9999 FEW007 SCT017 BKN030 08/07 Q1020 TEMPO 4000 SHRA
  • 231820Z 32010KT 9999 -SHRA FEW007 SCT017 BKN030 09/07 Q1019 TEMPO 4000 SHRA
  • 231750Z 33008KT 300V360 9999 FEW007 SCT013 BKN017 09/08 Q1018 TEMPO 4000 SHRA
  • 231720Z 34011G21KT 9999 -RA FEW007 SCT009 BKN017 09/08 Q1017 TEMPO 4000 SHRA
  • 231650Z 33009KT 280V350 9999 SCT007 BKN012 10/09 Q1016 TEMPO 4000 SHRA

TAF TAF EBLG
Valid from the 23 at 18:00 until the 25 at 00:00 UTC


231700Z 2318/2424 32007KT 8000 SCT015TCU BKN040
TEMPO 2318/2324 4000 SHRA BKN008
PROB30
TEMPO 2402/2407 BKN005
No reported NOTAMs for that airfield.



MET'MAP, your aeronautical weather chart ! - Copyright ORBIFLY December 2007 - Disclaimer

ORBIFLY MET'MAP TEAM :

Programming & Development : Alexandra Zaïnal
Concept & Development : Baudouin d'Aumeries
Co-Development & Prog : Marc-Olivier Méhu
Technical & hardware support : Manuel Goepfert

Contact : metmap@orbifly.com




SOURCES & CREDITS :

   NOAA